createdAt,value
2022-12-20T00:00:58.459Z,95848.00
2022-12-20T00:04:59.642Z,95842.00
2022-12-20T00:05:59.663Z,95842.00
2022-12-20T00:06:58.703Z,95840.00
2022-12-20T00:07:57.914Z,95838.00
2022-12-20T00:08:57.814Z,95838.00
2022-12-20T00:09:57.704Z,95838.00
2022-12-20T00:10:57.624Z,95842.00
2022-12-20T00:12:57.653Z,95844.00
2022-12-20T00:13:57.661Z,95842.00
2022-12-20T00:14:57.218Z,95836.00
2022-12-20T00:15:57.329Z,95834.00
2022-12-20T00:25:56.572Z,95830.00
2022-12-20T00:26:56.489Z,95828.00
2022-12-20T00:27:56.380Z,95832.00
2022-12-20T00:28:56.296Z,95824.00
2022-12-20T00:30:57.645Z,95814.00
2022-12-20T00:31:56.169Z,95816.00
2022-12-20T00:32:56.029Z,95818.00
2022-12-20T00:33:55.939Z,95816.00
2022-12-20T00:34:55.822Z,95816.00
2022-12-20T00:35:56.261Z,95816.00
2022-12-20T00:36:55.734Z,95816.00
2022-12-20T00:37:55.736Z,95814.00
2022-12-20T00:38:55.559Z,95816.00
2022-12-20T00:39:55.475Z,95812.00
2022-12-20T00:40:55.349Z,95810.00
2022-12-20T00:41:55.262Z,95810.00
2022-12-20T00:42:55.255Z,95808.00
2022-12-20T00:43:55.291Z,95812.00
2022-12-20T00:44:55.096Z,95812.00
2022-12-20T00:45:54.972Z,95816.00
2022-12-20T00:46:54.933Z,95810.00
2022-12-20T00:48:54.697Z,95805.00
2022-12-20T00:52:54.304Z,95814.00
2022-12-20T01:04:53.369Z,95818.00
2022-12-20T01:05:53.791Z,95820.00
2022-12-20T01:06:53.285Z,95818.00
2022-12-20T01:07:53.280Z,95818.00
2022-12-20T01:08:53.080Z,95816.00
2022-12-20T01:09:53.021Z,95814.00
2022-12-20T01:10:52.907Z,95816.00
2022-12-20T01:11:52.791Z,95820.00
2022-12-20T01:12:52.815Z,95820.00
2022-12-20T01:15:53.225Z,95820.00
2022-12-20T01:16:52.377Z,95814.00
2022-12-20T01:19:52.053Z,95808.00
2022-12-20T01:20:52.052Z,95803.00
2022-12-20T01:22:52.242Z,95805.00
2022-12-20T01:24:51.657Z,95807.00
2022-12-20T01:25:51.660Z,95807.00
2022-12-20T01:26:51.447Z,95807.00
2022-12-20T01:27:51.455Z,95805.00
2022-12-20T01:29:51.288Z,95803.00
2022-12-20T01:30:51.182Z,95807.00
2022-12-20T01:31:51.211Z,95805.00
2022-12-20T01:33:51.336Z,95803.00
2022-12-20T01:34:50.902Z,95803.00
2022-12-20T01:35:50.797Z,95801.00
2022-12-20T01:36:50.600Z,95799.00
2022-12-20T01:37:50.520Z,95797.00
2022-12-20T01:41:50.733Z,95797.00
2022-12-20T01:43:50.265Z,95797.00
2022-12-20T01:44:50.264Z,95797.00
2022-12-20T01:45:50.021Z,95795.00
2022-12-20T01:46:49.873Z,95797.00
2022-12-20T01:47:49.751Z,95801.00
2022-12-20T01:49:49.572Z,95799.00
2022-12-20T01:50:49.487Z,95799.00
2022-12-20T01:52:49.780Z,95795.00
2022-12-20T01:53:49.301Z,95801.00
2022-12-20T01:54:49.306Z,95797.00
2022-12-20T01:55:49.313Z,95797.00
2022-12-20T01:58:48.814Z,95797.00
2022-12-20T01:59:48.725Z,95797.00
2022-12-20T02:00:48.626Z,95793.00
2022-12-20T02:03:49.255Z,95785.00
2022-12-20T02:04:49.253Z,95783.00
2022-12-20T02:05:48.779Z,95785.00
2022-12-20T02:06:48.254Z,95785.00
2022-12-20T02:07:48.057Z,95785.00
2022-12-20T02:08:47.974Z,95783.00
2022-12-20T02:09:47.850Z,95781.00
2022-12-20T02:10:47.776Z,95777.00
2022-12-20T02:11:47.656Z,95777.00
2022-12-20T02:12:47.789Z,95781.00
2022-12-20T02:13:47.788Z,95781.00
2022-12-20T02:14:47.799Z,95783.00
2022-12-20T02:15:47.816Z,95785.00
2022-12-20T02:16:47.318Z,95785.00
2022-12-20T02:17:47.324Z,95787.00
2022-12-20T02:18:47.312Z,95789.00
2022-12-20T02:25:48.282Z,95781.00
2022-12-20T02:26:47.243Z,95781.00
2022-12-20T02:27:47.250Z,95781.00
2022-12-20T03:46:40.945Z,95775.00
2022-12-20T03:47:40.528Z,95779.00
2022-12-20T03:48:40.848Z,95775.00
2022-12-20T03:49:40.347Z,95771.00
2022-12-20T03:50:40.223Z,95775.00
2022-12-20T03:52:40.390Z,95779.00
2022-12-20T03:55:40.814Z,95767.00
2022-12-20T03:56:41.330Z,95765.00
2022-12-20T03:57:39.683Z,95765.00
2022-12-20T03:58:40.317Z,95767.00
2022-12-20T03:59:39.482Z,95773.00
2022-12-20T04:00:39.788Z,95771.00
2022-12-20T04:01:39.440Z,95773.00
2022-12-20T04:02:39.400Z,95773.00
2022-12-20T04:03:39.175Z,95773.00
2022-12-20T04:04:39.011Z,95773.00
2022-12-20T04:05:38.923Z,95769.00
2022-12-20T04:06:38.818Z,95773.00
2022-12-20T04:07:38.729Z,95769.00
2022-12-20T04:08:38.619Z,95769.00
2022-12-20T04:09:38.521Z,95771.00
2022-12-20T04:10:38.832Z,95769.00
2022-12-20T04:11:38.836Z,95769.00
2022-12-20T04:12:38.357Z,95769.00
2022-12-20T04:13:38.365Z,95767.00
2022-12-20T04:14:38.376Z,95765.00
2022-12-20T04:15:38.390Z,95769.00
2022-12-20T04:16:38.458Z,95767.00
2022-12-20T04:17:37.870Z,95767.00
2022-12-20T04:18:37.774Z,95765.00
2022-12-20T14:05:54.831Z,88699.00
2022-12-20T14:06:54.745Z,88693.00
2022-12-20T14:07:54.681Z,88701.00
